Time;durP1;ratioP1;P1;durP2;ratioP2;P2;SDS_P1;SDS_P2;PMS_P1;PMS_P2;Temp;Humidity;BMP_temperature;BMP_pressure;BME280_temperature;BME280_humidity;BME280_pressure;Samples;Min_cycle;Max_cycle;Signal;HPM_P1;HPM_P2
2021/06/04 00:01:06;;;;;;;32.97;29.88;;;;;;;;;;5081219;28;20407;-82
2021/06/04 00:03:33;;;;;;;33.05;29.88;;;;;;;;;;5078247;28;20935;-83
2021/06/04 00:05:59;;;;;;;32.13;28.95;;;;;;;;;;5092911;28;20781;-83
2021/06/04 00:08:26;;;;;;;33.13;29.88;;;;;;;;;;5088438;28;20485;-83
2021/06/04 00:10:55;;;;;;;33.20;29.80;;;;;;;;;;5076241;28;20505;-83
2021/06/04 00:13:26;;;;;;;32.78;29.58;;;;;;;;;;5085504;28;20398;-82
2021/06/04 00:15:56;;;;;;;32.58;29.38;;;;;;;;;;5082901;28;20935;-83
2021/06/04 00:18:25;;;;;;;32.42;29.42;;;;;;;;;;5092898;28;20490;-82
2021/06/04 00:20:52;;;;;;;32.67;29.55;;;;;;;;;;5083052;28;20403;-83
2021/06/04 00:23:19;;;;;;;32.28;29.17;;;;;;;;;;5094055;28;20474;-83
2021/06/04 00:25:46;;;;;;;31.83;28.73;;;;;;;;;;5086153;28;20925;-83
2021/06/04 00:28:13;;;;;;;32.05;28.92;;;;;;;;;;5082270;28;20420;-83
2021/06/04 00:30:40;;;;;;;32.65;29.45;;;;;;;;;;5086104;28;20446;-83
2021/06/04 00:33:07;;;;;;;31.27;28.25;;;;;;;;;;5084918;28;20396;-83
2021/06/04 00:35:38;;;;;;;31.35;28.38;;;;;;;;;;5092979;28;20398;-83
2021/06/04 00:38:06;;;;;;;30.90;28.00;;;;;;;;;;5084010;28;20895;-83
2021/06/04 00:40:37;;;;;;;32.05;28.88;;;;;;;;;;5093581;28;20435;-83
2021/06/04 00:43:05;;;;;;;32.08;28.77;;;;;;;;;;5087567;28;21281;-83
2021/06/04 00:45:35;;;;;;;31.27;28.38;;;;;;;;;;5075756;28;20475;-83
2021/06/04 00:48:02;;;;;;;30.77;27.67;;;;;;;;;;5088097;28;20412;-83
2021/06/04 00:50:36;;;;;;;29.80;26.92;;;;;;;;;;5088358;28;20501;-83
2021/06/04 00:53:04;;;;;;;30.88;27.92;;;;;;;;;;5087226;28;20443;-83
2021/06/04 00:55:32;;;;;;;31.42;28.42;;;;;;;;;;5088942;28;20827;-83
2021/06/04 00:57:58;;;;;;;30.60;27.77;;;;;;;;;;5084630;28;20431;-83
2021/06/04 01:00:29;;;;;;;31.38;28.38;;;;;;;;;;5091802;28;20525;-82
2021/06/04 01:02:57;;;;;;;30.48;27.50;;;;;;;;;;5082649;28;20888;-83
2021/06/04 01:05:26;;;;;;;30.20;27.25;;;;;;;;;;5088111;28;20450;-82
2021/06/04 01:08:20;;;;;;;30.83;27.92;;;;;;;;;;5087822;28;20473;-83
2021/06/04 01:11:01;;;;;;;29.67;26.77;;;;;;;;;;5077937;28;20476;-82
2021/06/04 01:13:31;;;;;;;29.42;26.65;;;;;;;;;;5079852;28;20488;-83
2021/06/04 01:16:06;;;;;;;28.52;25.83;;;;;;;;;;5074804;28;20774;-82
2021/06/04 01:18:58;;;;;;;30.23;27.23;;;;;;;;;;5080210;28;20931;-83
2021/06/04 01:21:35;;;;;;;29.77;26.87;;;;;;;;;;5081201;28;20434;-82
2021/06/04 01:24:23;;;;;;;29.00;26.20;;;;;;;;;;5080522;28;20483;-83
2021/06/04 01:26:54;;;;;;;29.48;26.75;;;;;;;;;;5078071;28;21099;-83
2021/06/04 01:29:26;;;;;;;29.27;26.42;;;;;;;;;;5080883;28;20488;-83
2021/06/04 01:31:56;;;;;;;29.35;26.65;;;;;;;;;;5076672;28;20420;-83
2021/06/04 01:34:26;;;;;;;28.88;26.00;;;;;;;;;;5078952;28;20397;-83
2021/06/04 01:36:55;;;;;;;29.08;26.27;;;;;;;;;;5078829;28;20430;-82
2021/06/04 01:39:26;;;;;;;29.67;26.70;;;;;;;;;;5080584;28;20400;-83
2021/06/04 01:41:56;;;;;;;28.92;26.02;;;;;;;;;;5080594;28;20466;-83
2021/06/04 01:44:28;;;;;;;28.53;25.73;;;;;;;;;;5082254;28;20400;-83
2021/06/04 01:47:01;;;;;;;28.40;25.77;;;;;;;;;;5079733;28;20442;-83
2021/06/04 01:49:31;;;;;;;29.40;26.58;;;;;;;;;;5082527;28;20407;-83
2021/06/04 01:52:06;;;;;;;29.27;26.55;;;;;;;;;;5079519;28;20457;-83
2021/06/04 01:54:37;;;;;;;29.23;26.33;;;;;;;;;;5083364;28;20737;-83
2021/06/04 01:57:09;;;;;;;29.10;26.30;;;;;;;;;;5080363;28;20410;-83
2021/06/04 01:59:40;;;;;;;29.70;26.73;;;;;;;;;;5082045;28;20857;-83
2021/06/04 02:02:08;;;;;;;29.33;26.52;;;;;;;;;;5072537;28;20405;-83
2021/06/04 02:04:37;;;;;;;28.93;26.20;;;;;;;;;;5079815;28;20435;-83
2021/06/04 02:07:05;;;;;;;28.85;26.05;;;;;;;;;;5081135;28;20411;-83
2021/06/04 02:09:31;;;;;;;29.48;26.60;;;;;;;;;;5081182;28;20438;-82
2021/06/04 02:11:58;;;;;;;29.75;26.80;;;;;;;;;;5082710;28;20453;-82
2021/06/04 02:14:30;;;;;;;29.27;26.45;;;;;;;;;;5080656;28;20471;-83
2021/06/04 02:17:07;;;;;;;29.95;27.05;;;;;;;;;;5077599;28;20429;-82
2021/06/04 02:19:48;;;;;;;29.40;26.38;;;;;;;;;;5083181;28;20760;-83
2021/06/04 02:22:21;;;;;;;28.75;25.85;;;;;;;;;;5077892;28;20407;-83
2021/06/04 02:24:54;;;;;;;28.88;25.90;;;;;;;;;;5077888;28;20408;-83
2021/06/04 02:27:27;;;;;;;29.33;26.52;;;;;;;;;;5078790;28;20400;-83
2021/06/04 02:30:00;;;;;;;30.05;27.17;;;;;;;;;;5080420;28;20534;-83
2021/06/04 02:32:32;;;;;;;30.55;27.65;;;;;;;;;;5079225;28;20434;-83
2021/06/04 02:35:05;;;;;;;30.45;27.45;;;;;;;;;;5080889;28;20396;-83
2021/06/04 02:37:36;;;;;;;31.02;27.90;;;;;;;;;;5078475;28;20487;-83
2021/06/04 02:40:09;;;;;;;31.42;28.35;;;;;;;;;;5074925;28;20396;-83
2021/06/04 02:42:39;;;;;;;31.48;28.15;;;;;;;;;;5074389;28;20796;-82
2021/06/04 02:45:18;;;;;;;32.30;29.23;;;;;;;;;;5078730;28;20481;-83
2021/06/04 02:47:48;;;;;;;32.22;29.02;;;;;;;;;;5075350;28;20483;-82
2021/06/04 02:50:19;;;;;;;31.67;28.60;;;;;;;;;;5074282;28;20756;-83
2021/06/04 02:52:46;;;;;;;32.38;29.08;;;;;;;;;;5074823;28;20465;-83
2021/06/04 02:55:16;;;;;;;31.38;28.42;;;;;;;;;;5076609;28;20426;-83
2021/06/04 02:57:43;;;;;;;32.67;29.48;;;;;;;;;;5077827;28;20448;-83
2021/06/04 03:00:21;;;;;;;32.72;29.52;;;;;;;;;;5088785;28;20424;-83
2021/06/04 03:02:48;;;;;;;32.72;29.55;;;;;;;;;;5077618;28;20957;-83
2021/06/04 03:05:18;;;;;;;34.38;31.08;;;;;;;;;;5082972;28;20399;-83
2021/06/04 03:07:44;;;;;;;35.05;31.45;;;;;;;;;;5077187;28;20485;-82
2021/06/04 03:10:17;;;;;;;34.83;31.23;;;;;;;;;;5082029;28;20396;-83
2021/06/04 03:12:46;;;;;;;35.75;32.35;;;;;;;;;;5080451;28;20428;-83
2021/06/04 03:15:23;;;;;;;35.88;32.28;;;;;;;;;;5079288;28;20424;-83
2021/06/04 03:17:50;;;;;;;35.55;32.03;;;;;;;;;;5080394;28;20404;-83
2021/06/04 03:20:21;;;;;;;35.23;31.87;;;;;;;;;;5078927;28;20759;-83
2021/06/04 03:22:48;;;;;;;35.78;32.20;;;;;;;;;;5078991;28;20475;-83
2021/06/04 03:25:19;;;;;;;36.73;33.13;;;;;;;;;;5077421;28;20422;-83
2021/06/04 03:27:47;;;;;;;36.60;32.90;;;;;;;;;;5081927;28;20408;-83
2021/06/04 03:30:18;;;;;;;36.85;33.13;;;;;;;;;;5080947;28;20485;-83
2021/06/04 03:32:45;;;;;;;35.20;31.75;;;;;;;;;;5079433;28;20396;-83
2021/06/04 03:35:13;;;;;;;36.75;33.05;;;;;;;;;;5081477;28;20557;-83
2021/06/04 03:37:40;;;;;;;35.97;32.28;;;;;;;;;;5077473;28;20477;-82
2021/06/04 03:40:09;;;;;;;35.70;32.03;;;;;;;;;;5080866;28;20454;-83
2021/06/04 03:42:36;;;;;;;35.00;31.58;;;;;;;;;;5079490;28;20496;-83
2021/06/04 03:45:06;;;;;;;34.88;31.30;;;;;;;;;;5082429;28;20476;-82
2021/06/04 03:47:34;;;;;;;34.10;30.60;;;;;;;;;;5078425;28;20512;-83
2021/06/04 03:50:00;;;;;;;33.50;30.05;;;;;;;;;;5080959;28;20400;-83
2021/06/04 03:52:27;;;;;;;33.37;29.83;;;;;;;;;;5078999;28;20512;-83
2021/06/04 03:54:57;;;;;;;32.88;29.55;;;;;;;;;;5078486;28;20403;-83
2021/06/04 03:57:26;;;;;;;32.72;29.33;;;;;;;;;;5081839;28;20396;-82
2021/06/04 03:59:54;;;;;;;31.37;28.27;;;;;;;;;;5077411;28;20853;-82
2021/06/04 04:02:23;;;;;;;31.88;28.67;;;;;;;;;;5080968;28;20408;-83
2021/06/04 04:04:56;;;;;;;32.20;28.92;;;;;;;;;;5076952;28;20420;-83
2021/06/04 04:07:23;;;;;;;31.77;28.33;;;;;;;;;;5078404;28;20810;-83
2021/06/04 04:09:49;;;;;;;32.05;28.85;;;;;;;;;;5081219;28;20841;-83
2021/06/04 04:12:17;;;;;;;33.22;29.83;;;;;;;;;;5079072;28;20427;-83
2021/06/04 04:14:45;;;;;;;32.90;29.48;;;;;;;;;;5082301;28;20407;-83
2021/06/04 04:17:11;;;;;;;33.77;30.23;;;;;;;;;;5063786;28;20503;-83
2021/06/04 04:19:38;;;;;;;33.47;30.07;;;;;;;;;;5071939;28;20410;-82
2021/06/04 04:22:07;;;;;;;33.05;29.55;;;;;;;;;;5080629;28;20435;-83
2021/06/04 04:24:36;;;;;;;33.05;29.65;;;;;;;;;;5078325;28;20797;-82
2021/06/04 04:27:04;;;;;;;32.58;29.38;;;;;;;;;;5081582;28;20450;-83
2021/06/04 04:29:31;;;;;;;32.80;29.50;;;;;;;;;;5081334;28;20397;-83
2021/06/04 04:32:00;;;;;;;33.30;29.80;;;;;;;;;;5081742;28;20420;-83
2021/06/04 04:34:29;;;;;;;32.55;29.25;;;;;;;;;;5082059;28;20404;-83
2021/06/04 04:36:59;;;;;;;32.55;29.05;;;;;;;;;;5081627;28;20836;-83
2021/06/04 04:39:30;;;;;;;32.70;29.17;;;;;;;;;;5081511;28;20492;-83
2021/06/04 04:41:57;;;;;;;32.50;29.08;;;;;;;;;;5081715;28;21178;-83
2021/06/04 04:44:27;;;;;;;31.00;27.80;;;;;;;;;;5081249;28;20902;-83
2021/06/04 04:46:55;;;;;;;30.42;27.35;;;;;;;;;;5082903;28;20404;-83
2021/06/04 04:49:22;;;;;;;31.08;27.02;;;;;;;;;;5074100;28;20505;-83
2021/06/04 04:51:49;;;;;;;29.33;26.40;;;;;;;;;;5068699;28;20468;-83
2021/06/04 04:54:15;;;;;;;30.70;27.50;;;;;;;;;;5082174;28;20507;-83
2021/06/04 04:56:44;;;;;;;29.40;26.50;;;;;;;;;;5080344;28;20764;-82
2021/06/04 04:59:11;;;;;;;28.77;25.80;;;;;;;;;;5099163;22;20409;-90
2021/06/04 05:01:38;;;;;;;29.83;26.83;;;;;;;;;;5099952;27;20408;-90
2021/06/04 05:04:05;;;;;;;30.33;27.23;;;;;;;;;;5099175;27;20394;-90
2021/06/04 05:06:31;;;;;;;28.98;25.98;;;;;;;;;;5100936;27;20481;-89
2021/06/04 05:08:58;;;;;;;28.63;25.83;;;;;;;;;;5107935;27;20444;-90
2021/06/04 05:11:25;;;;;;;29.08;26.17;;;;;;;;;;5103786;27;20413;-90
2021/06/04 05:13:53;;;;;;;28.35;25.45;;;;;;;;;;5104846;27;20397;-91
2021/06/04 05:16:19;;;;;;;28.45;25.42;;;;;;;;;;5101031;27;20493;-90
2021/06/04 05:18:46;;;;;;;28.23;25.23;;;;;;;;;;5097209;27;20735;-91
2021/06/04 05:21:16;;;;;;;27.77;25.07;;;;;;;;;;5107285;27;20468;-91
2021/06/04 05:23:43;;;;;;;28.73;25.38;;;;;;;;;;5098652;28;20762;-91
2021/06/04 05:26:10;;;;;;;28.88;25.83;;;;;;;;;;5100637;27;20486;-90
2021/06/04 05:28:38;;;;;;;31.35;28.13;;;;;;;;;;5106310;27;20491;-90
2021/06/04 05:31:08;;;;;;;30.30;27.25;;;;;;;;;;5107082;27;20587;-90
2021/06/04 05:33:39;;;;;;;31.90;28.50;;;;;;;;;;5110749;27;20394;-91
2021/06/04 05:36:08;;;;;;;31.70;28.50;;;;;;;;;;5101849;27;20478;-90
2021/06/04 05:38:36;;;;;;;31.83;28.42;;;;;;;;;;5097293;27;20803;-90
2021/06/04 05:41:03;;;;;;;30.23;27.23;;;;;;;;;;5095610;27;20406;-90
2021/06/04 05:43:40;;;;;;;31.27;28.17;;;;;;;;;;5100404;27;20769;-90
2021/06/04 05:46:11;;;;;;;31.15;27.88;;;;;;;;;;5099276;27;20490;-91
2021/06/04 05:48:38;;;;;;;32.83;28.25;;;;;;;;;;5094247;27;20522;-89
2021/06/04 05:51:08;;;;;;;31.38;28.08;;;;;;;;;;5096631;27;20504;-90
2021/06/04 05:53:40;;;;;;;30.00;26.95;;;;;;;;;;5096312;28;20415;-89
2021/06/04 05:56:11;;;;;;;31.67;26.98;;;;;;;;;;5097390;28;20402;-89
2021/06/04 05:58:42;;;;;;;30.08;26.98;;;;;;;;;;5102027;27;20413;-90
2021/06/04 06:01:15;;;;;;;31.53;28.37;;;;;;;;;;5086866;28;20506;-90
2021/06/04 06:03:46;;;;;;;30.13;27.17;;;;;;;;;;5087645;28;20800;-90
2021/06/04 06:06:15;;;;;;;31.02;27.83;;;;;;;;;;5090957;28;20475;-90
2021/06/04 06:08:44;;;;;;;32.30;28.77;;;;;;;;;;5094024;28;20418;-90
2021/06/04 06:11:14;;;;;;;32.90;28.90;;;;;;;;;;5092591;28;20420;-90
2021/06/04 06:13:42;;;;;;;32.78;29.38;;;;;;;;;;5088559;28;20943;-90
2021/06/04 06:16:12;;;;;;;32.85;29.45;;;;;;;;;;5093201;28;20875;-90
2021/06/04 06:18:40;;;;;;;32.53;29.02;;;;;;;;;;5092289;28;20458;-91
2021/06/04 06:21:08;;;;;;;32.27;28.80;;;;;;;;;;5089575;28;20950;-90
2021/06/04 06:23:38;;;;;;;32.45;28.92;;;;;;;;;;5086644;28;20416;-90
2021/06/04 06:26:10;;;;;;;33.05;29.63;;;;;;;;;;5086117;28;20398;-90
2021/06/04 06:28:40;;;;;;;32.93;29.60;;;;;;;;;;5086702;28;20463;-89
2021/06/04 06:31:12;;;;;;;32.20;28.85;;;;;;;;;;5086259;28;20501;-91
2021/06/04 06:33:42;;;;;;;32.40;28.95;;;;;;;;;;5087147;28;20428;-90
2021/06/04 06:36:12;;;;;;;31.70;28.40;;;;;;;;;;5085055;28;20411;-91
2021/06/04 06:38:41;;;;;;;30.15;27.23;;;;;;;;;;5092927;28;20477;-89
2021/06/04 06:41:14;;;;;;;30.88;27.60;;;;;;;;;;5090029;28;20414;-90
2021/06/04 06:43:44;;;;;;;28.73;25.70;;;;;;;;;;5083840;28;21031;-90
2021/06/04 06:46:13;;;;;;;27.88;24.98;;;;;;;;;;5094915;28;20407;-90
2021/06/04 06:48:45;;;;;;;29.38;26.13;;;;;;;;;;5092902;28;20392;-90
2021/06/04 06:51:14;;;;;;;30.00;25.57;;;;;;;;;;5091993;28;20420;-89
2021/06/04 06:53:43;;;;;;;27.88;25.02;;;;;;;;;;5089844;28;20403;-90
2021/06/04 06:56:14;;;;;;;27.88;25.10;;;;;;;;;;5094668;28;20404;-89
2021/06/04 06:58:41;;;;;;;27.85;24.95;;;;;;;;;;5093180;28;20408;-90
2021/06/04 07:01:09;;;;;;;28.90;24.73;;;;;;;;;;5081431;28;20644;-90
2021/06/04 07:03:38;;;;;;;27.63;24.67;;;;;;;;;;5085686;28;20430;-89
2021/06/04 07:06:09;;;;;;;28.42;25.23;;;;;;;;;;5081621;28;20518;-90
2021/06/04 07:08:36;;;;;;;28.17;24.50;;;;;;;;;;5082554;28;20479;-90
2021/06/04 07:11:03;;;;;;;27.45;24.60;;;;;;;;;;5085909;28;20408;-90
2021/06/04 07:13:30;;;;;;;27.52;24.65;;;;;;;;;;5084522;28;20412;-90
2021/06/04 07:16:01;;;;;;;28.27;24.88;;;;;;;;;;5081210;28;20475;-90
2021/06/04 07:18:28;;;;;;;26.75;23.77;;;;;;;;;;5089041;28;20483;-90
2021/06/04 07:21:00;;;;;;;27.67;24.08;;;;;;;;;;5081187;28;20518;-89
2021/06/04 07:23:30;;;;;;;27.27;24.40;;;;;;;;;;5084970;28;20388;-89
2021/06/04 07:25:59;;;;;;;25.95;23.15;;;;;;;;;;5085394;28;20479;-90
2021/06/04 07:28:28;;;;;;;26.80;23.90;;;;;;;;;;5082672;28;20430;-90
2021/06/04 07:31:00;;;;;;;27.93;22.93;;;;;;;;;;5080987;28;20805;-90
2021/06/04 07:33:31;;;;;;;24.67;22.17;;;;;;;;;;5087695;28;20489;-91
2021/06/04 07:36:01;;;;;;;24.50;21.85;;;;;;;;;;5077859;28;20787;-90
2021/06/04 07:38:31;;;;;;;24.15;21.60;;;;;;;;;;5086980;28;20404;-91
2021/06/04 07:41:00;;;;;;;22.63;20.30;;;;;;;;;;5078871;28;20888;-90
2021/06/04 07:43:32;;;;;;;22.92;20.42;;;;;;;;;;5091261;28;20409;-90
2021/06/04 07:46:00;;;;;;;22.48;20.20;;;;;;;;;;5085700;28;21156;-90
2021/06/04 07:48:28;;;;;;;24.37;20.67;;;;;;;;;;5086783;28;20479;-90
2021/06/04 07:50:57;;;;;;;22.33;19.90;;;;;;;;;;5084933;28;20396;-90
2021/06/04 07:53:29;;;;;;;20.20;18.00;;;;;;;;;;5083219;28;20479;-90
2021/06/04 07:55:59;;;;;;;21.33;18.88;;;;;;;;;;5087321;28;20403;-90
2021/06/04 07:58:28;;;;;;;21.33;19.25;;;;;;;;;;5088886;28;20441;-90
2021/06/04 08:00:56;;;;;;;21.73;19.60;;;;;;;;;;5086349;28;20405;-91
2021/06/04 08:03:26;;;;;;;22.58;20.17;;;;;;;;;;5090268;28;20436;-90
2021/06/04 08:05:54;;;;;;;21.65;19.17;;;;;;;;;;5085857;28;20478;-90
2021/06/04 08:08:21;;;;;;;21.42;19.15;;;;;;;;;;5089627;28;20767;-90
2021/06/04 08:10:48;;;;;;;22.45;20.23;;;;;;;;;;5092630;28;20947;-90
2021/06/04 08:13:19;;;;;;;23.60;21.15;;;;;;;;;;5088188;28;20495;-90
2021/06/04 08:15:49;;;;;;;21.70;19.52;;;;;;;;;;5091420;28;20404;-90
2021/06/04 08:18:16;;;;;;;22.70;20.25;;;;;;;;;;5084869;28;20819;-90
2021/06/04 08:20:44;;;;;;;21.80;19.60;;;;;;;;;;5088607;28;20400;-90
2021/06/04 08:23:15;;;;;;;19.93;17.93;;;;;;;;;;5087859;28;20400;-91
2021/06/04 08:25:46;;;;;;;21.42;19.15;;;;;;;;;;5090524;28;20409;-91
2021/06/04 08:28:14;;;;;;;22.65;20.38;;;;;;;;;;5089609;28;20400;-90
2021/06/04 08:30:44;;;;;;;23.08;20.80;;;;;;;;;;5089167;28;20392;-90
2021/06/04 08:33:13;;;;;;;21.55;19.35;;;;;;;;;;5091347;28;20396;-90
2021/06/04 08:35:41;;;;;;;22.17;19.83;;;;;;;;;;5091633;28;20396;-90
2021/06/04 08:38:09;;;;;;;18.83;16.93;;;;;;;;;;5090490;28;20391;-90
2021/06/04 08:40:39;;;;;;;17.33;15.48;;;;;;;;;;5088115;28;20409;-90
2021/06/04 08:43:19;;;;;;;17.88;16.08;;;;;;;;;;5086834;28;20944;-90
2021/06/04 08:45:58;;;;;;;16.90;15.18;;;;;;;;;;5087441;28;20487;-90
2021/06/04 08:48:41;;;;;;;17.80;16.13;;;;;;;;;;5086888;28;20499;-90
2021/06/04 08:51:19;;;;;;;17.42;15.57;;;;;;;;;;5088288;28;20816;-90
2021/06/04 08:54:03;;;;;;;21.20;19.08;;;;;;;;;;5089699;28;20426;-90
2021/06/04 08:56:36;;;;;;;19.47;17.37;;;;;;;;;;5092099;28;20443;-90
2021/06/04 08:59:08;;;;;;;16.65;14.95;;;;;;;;;;5096914;27;20741;-90
2021/06/04 09:01:44;;;;;;;14.07;12.68;;;;;;;;;;5111615;27;20406;-90
2021/06/04 09:04:17;;;;;;;13.80;12.40;;;;;;;;;;5113692;27;20400;-90
2021/06/04 09:06:48;;;;;;;14.00;12.50;;;;;;;;;;5111149;27;20763;-90
2021/06/04 09:09:24;;;;;;;18.52;16.63;;;;;;;;;;5113197;27;20410;-90
2021/06/04 09:11:57;;;;;;;19.02;17.13;;;;;;;;;;5113993;27;20408;-90
2021/06/04 09:14:27;;;;;;;20.10;18.00;;;;;;;;;;5110366;27;20414;-90
2021/06/04 09:17:16;;;;;;;21.35;19.33;;;;;;;;;;5113733;27;20921;-90
2021/06/04 09:19:57;;;;;;;20.20;18.23;;;;;;;;;;5104785;27;20392;-90
2021/06/04 09:22:29;;;;;;;18.48;16.58;;;;;;;;;;5107173;27;21228;-91
2021/06/04 09:24:58;;;;;;;22.63;20.40;;;;;;;;;;5105991;27;20385;-91
2021/06/04 09:27:29;;;;;;;22.37;20.20;;;;;;;;;;5108221;27;20455;-90
2021/06/04 09:30:14;;;;;;;25.05;22.70;;;;;;;;;;5106864;27;20406;-89
2021/06/04 09:32:59;;;;;;;20.50;18.33;;;;;;;;;;5110140;27;20419;-90
2021/06/04 09:35:29;;;;;;;17.98;16.13;;;;;;;;;;5109119;27;20397;-90
2021/06/04 09:38:13;;;;;;;19.55;17.58;;;;;;;;;;5109444;27;20445;-90
2021/06/04 09:40:42;;;;;;;19.42;17.60;;;;;;;;;;5103445;27;20478;-90
2021/06/04 09:43:19;;;;;;;22.40;19.38;;;;;;;;;;5104994;27;21229;-91
2021/06/04 09:45:57;;;;;;;19.35;17.55;;;;;;;;;;5094088;27;21407;-90
2021/06/04 09:48:43;;;;;;;16.27;14.70;;;;;;;;;;5104249;27;20403;-90
2021/06/04 09:51:23;;;;;;;15.50;13.90;;;;;;;;;;5083316;28;20494;-90
2021/06/04 09:53:53;;;;;;;16.33;14.68;;;;;;;;;;5097905;27;20413;-90
2021/06/04 09:56:31;;;;;;;17.55;15.75;;;;;;;;;;5099030;27;20900;-90
2021/06/04 09:59:02;;;;;;;18.77;16.98;;;;;;;;;;5101510;27;20411;-90
2021/06/04 10:01:32;;;;;;;18.65;16.55;;;;;;;;;;5102633;27;20738;-90
2021/06/04 10:04:05;;;;;;;19.77;17.77;;;;;;;;;;5107810;27;20390;-90
2021/06/04 10:06:42;;;;;;;19.92;15.77;;;;;;;;;;5104511;28;20394;-90
2021/06/04 10:09:25;;;;;;;17.17;15.43;;;;;;;;;;5106201;27;20485;-89
2021/06/04 10:12:00;;;;;;;16.33;14.70;;;;;;;;;;5099316;27;20527;-88
2021/06/04 10:14:51;;;;;;;15.40;13.90;;;;;;;;;;5105473;27;20901;-90
2021/06/04 10:17:59;;;;;;;14.23;12.83;;;;;;;;;;5103588;27;20395;-91
2021/06/04 10:20:40;;;;;;;16.75;15.05;;;;;;;;;;5098595;27;20419;-90
2021/06/04 10:23:27;;;;;;;13.93;12.60;;;;;;;;;;5104153;27;20397;-90
2021/06/04 10:25:58;;;;;;;14.05;12.55;;;;;;;;;;5108017;27;20417;-90
2021/06/04 10:28:39;;;;;;;13.13;11.38;;;;;;;;;;5105244;28;20485;-89
2021/06/04 10:31:33;;;;;;;12.15;11.10;;;;;;;;;;5105129;28;20958;-90
2021/06/04 10:34:12;;;;;;;14.65;9.68;;;;;;;;;;5104886;28;20531;-89
2021/06/04 10:36:45;;;;;;;12.13;11.03;;;;;;;;;;5100257;28;20397;-90
2021/06/04 10:39:20;;;;;;;11.30;10.13;;;;;;;;;;5098909;28;20901;-90
2021/06/04 10:41:59;;;;;;;11.77;10.60;;;;;;;;;;5097036;28;20553;-90
2021/06/04 10:44:35;;;;;;;11.93;10.73;;;;;;;;;;5100689;28;20827;-90
2021/06/04 10:47:11;;;;;;;14.10;11.50;;;;;;;;;;5104221;28;20395;-90
2021/06/04 10:49:53;;;;;;;12.93;11.65;;;;;;;;;;5103950;28;20387;-90
2021/06/04 10:52:37;;;;;;;14.33;12.93;;;;;;;;;;5096337;28;20457;-90
2021/06/04 10:55:13;;;;;;;15.30;13.70;;;;;;;;;;5097517;28;20446;-90
2021/06/04 10:57:48;;;;;;;13.70;12.38;;;;;;;;;;5107204;28;20401;-89
2021/06/04 11:00:21;;;;;;;15.40;13.02;;;;;;;;;;5107820;28;20436;-90
2021/06/04 11:03:01;;;;;;;15.63;12.60;;;;;;;;;;5110655;28;20430;-90
2021/06/04 11:05:52;;;;;;;14.27;12.88;;;;;;;;;;5096227;28;20422;-89
2021/06/04 11:08:53;;;;;;;12.02;10.80;;;;;;;;;;5099523;28;20890;-90
2021/06/04 11:11:41;;;;;;;12.45;11.18;;;;;;;;;;5088974;28;20495;-89
2021/06/04 11:14:28;;;;;;;14.35;12.48;;;;;;;;;;5097452;28;20402;-90
2021/06/04 11:17:04;;;;;;;14.05;12.60;;;;;;;;;;5102284;27;20396;-90
2021/06/04 11:19:38;;;;;;;12.50;11.25;;;;;;;;;;5105832;27;20789;-89
2021/06/04 11:22:13;;;;;;;14.10;12.70;;;;;;;;;;5107353;27;20413;-89
2021/06/04 11:24:47;;;;;;;13.80;11.85;;;;;;;;;;5106626;27;20413;-89
2021/06/04 11:27:23;;;;;;;13.88;12.48;;;;;;;;;;5108396;27;20451;-88
2021/06/04 11:29:52;;;;;;;15.65;14.05;;;;;;;;;;5109882;27;20406;-89
2021/06/04 11:32:27;;;;;;;15.65;14.10;;;;;;;;;;5105102;27;20416;-90
2021/06/04 11:34:59;;;;;;;15.98;14.48;;;;;;;;;;5104061;27;20402;-89
2021/06/04 11:37:35;;;;;;;13.52;12.13;;;;;;;;;;5110910;27;20483;-88
2021/06/04 11:40:11;;;;;;;12.30;11.07;;;;;;;;;;5107056;27;20405;-90
2021/06/04 11:42:51;;;;;;;11.75;10.55;;;;;;;;;;5107989;27;20480;-90
2021/06/04 11:45:23;;;;;;;13.27;11.88;;;;;;;;;;5109733;27;20394;-90
2021/06/04 11:47:53;;;;;;;11.93;10.37;;;;;;;;;;5110719;27;20396;-89
2021/06/04 11:50:34;;;;;;;13.47;12.17;;;;;;;;;;5110819;27;20440;-89
2021/06/04 11:53:31;;;;;;;12.53;11.23;;;;;;;;;;5110967;27;20418;-89
2021/06/04 11:56:02;;;;;;;11.98;10.68;;;;;;;;;;5112182;27;20755;-89
2021/06/04 11:58:50;;;;;;;12.02;10.80;;;;;;;;;;5114325;27;20401;-89
2021/06/04 12:01:46;;;;;;;10.95;9.23;;;;;;;;;;5094767;28;20402;-90
2021/06/04 12:04:19;;;;;;;9.20;8.30;;;;;;;;;;5092768;28;20408;-90
2021/06/04 12:07:05;;;;;;;9.43;8.38;;;;;;;;;;5094266;28;20407;-89
2021/06/04 12:09:51;;;;;;;10.55;8.70;;;;;;;;;;5095098;28;20397;-90
2021/06/04 12:13:06;;;;;;;8.68;7.88;;;;;;;;;;5098938;28;20771;-90
2021/06/04 12:15:41;;;;;;;11.52;8.63;;;;;;;;;;5094605;28;20434;-90
2021/06/04 12:18:33;;;;;;;9.23;8.03;;;;;;;;;;5097693;28;20407;-90
2021/06/04 12:21:01;;;;;;;12.68;8.63;;;;;;;;;;5087877;28;20593;-90
2021/06/04 12:23:49;;;;;;;9.93;8.93;;;;;;;;;;5088045;28;20495;-90
2021/06/04 12:26:43;;;;;;;8.50;7.50;;;;;;;;;;5095401;28;20407;-90
2021/06/04 12:29:41;;;;;;;9.88;7.80;;;;;;;;;;5074693;28;21338;-90
2021/06/04 12:32:12;;;;;;;6.90;6.30;;;;;;;;;;5084989;28;20431;-90
2021/06/04 12:34:57;;;;;;;7.83;6.40;;;;;;;;;;5092803;28;20400;-90
2021/06/04 12:37:31;;;;;;;8.02;7.32;;;;;;;;;;5091448;28;20528;-90
2021/06/04 12:40:22;;;;;;;8.15;6.57;;;;;;;;;;5090427;28;20394;-90
2021/06/04 12:43:14;;;;;;;7.00;6.40;;;;;;;;;;5092539;28;20414;-90
2021/06/04 12:45:44;;;;;;;7.18;6.00;;;;;;;;;;5091335;28;21419;-90
2021/06/04 12:48:19;;;;;;;8.80;5.85;;;;;;;;;;5088177;28;20404;-90
2021/06/04 12:50:48;;;;;;;8.77;6.00;;;;;;;;;;5081685;28;20394;-90
2021/06/04 12:53:25;;;;;;;8.40;6.20;;;;;;;;;;5087503;28;20418;-90
2021/06/04 12:56:04;;;;;;;6.97;6.28;;;;;;;;;;5091539;28;20487;-89
2021/06/04 12:58:33;;;;;;;7.78;6.47;;;;;;;;;;5090485;28;20440;-89
2021/06/04 13:01:13;;;;;;;7.85;7.05;;;;;;;;;;5087078;28;20447;-89
2021/06/04 13:03:43;;;;;;;7.10;6.40;;;;;;;;;;5093736;28;20797;-90
2021/06/04 13:06:15;;;;;;;7.00;6.30;;;;;;;;;;5090304;28;21115;-90
2021/06/04 13:08:47;;;;;;;6.75;5.80;;;;;;;;;;5087823;28;20415;-90
2021/06/04 13:11:14;;;;;;;6.23;5.63;;;;;;;;;;5088800;28;20403;-89
2021/06/04 13:13:43;;;;;;;5.85;5.35;;;;;;;;;;5088968;28;20419;-90
2021/06/04 13:16:21;;;;;;;7.78;5.95;;;;;;;;;;5087715;28;20402;-90
2021/06/04 13:18:50;;;;;;;7.30;6.00;;;;;;;;;;5090309;28;20400;-89
2021/06/04 13:21:20;;;;;;;6.73;5.80;;;;;;;;;;5086618;28;20798;-89
2021/06/04 13:24:01;;;;;;;7.78;6.03;;;;;;;;;;5084962;28;20488;-90
2021/06/04 13:26:35;;;;;;;8.48;5.90;;;;;;;;;;5083182;28;20568;-90
2021/06/04 13:29:05;;;;;;;6.75;5.97;;;;;;;;;;5085322;28;20410;-91
2021/06/04 13:31:36;;;;;;;9.20;6.63;;;;;;;;;;5084355;28;20896;-90
2021/06/04 13:34:07;;;;;;;6.93;5.90;;;;;;;;;;5081568;28;20838;-90
2021/06/04 13:36:34;;;;;;;6.65;6.15;;;;;;;;;;5088244;28;20392;-89
2021/06/04 13:39:07;;;;;;;8.07;5.97;;;;;;;;;;5081084;28;20935;-90
2021/06/04 13:41:38;;;;;;;6.45;5.43;;;;;;;;;;5086153;28;20812;-90
2021/06/04 13:44:10;;;;;;;7.53;6.07;;;;;;;;;;5084534;28;20431;-89
2021/06/04 13:46:42;;;;;;;6.07;5.40;;;;;;;;;;5089268;28;20870;-89
2021/06/04 13:49:21;;;;;;;7.03;6.15;;;;;;;;;;5091854;28;20888;-91
2021/06/04 13:51:54;;;;;;;6.78;6.10;;;;;;;;;;5089238;28;20407;-89
2021/06/04 13:54:25;;;;;;;6.22;5.63;;;;;;;;;;5085312;28;20396;-90
2021/06/04 13:56:52;;;;;;;5.85;5.13;;;;;;;;;;5090157;28;20392;-90
2021/06/04 13:59:37;;;;;;;6.75;5.43;;;;;;;;;;5091197;28;20483;-90
2021/06/04 14:02:26;;;;;;;6.15;4.80;;;;;;;;;;5085840;28;20865;-90
2021/06/04 14:04:55;;;;;;;5.93;4.93;;;;;;;;;;5079198;28;20424;-90
2021/06/04 14:07:40;;;;;;;5.93;4.85;;;;;;;;;;5070824;28;21794;-91
2021/06/04 14:10:34;;;;;;;6.22;5.10;;;;;;;;;;5082823;28;20416;-90
2021/06/04 14:13:05;;;;;;;6.78;4.88;;;;;;;;;;5084546;28;20823;-89
2021/06/04 14:15:48;;;;;;;5.35;4.82;;;;;;;;;;5082447;28;20400;-90
2021/06/04 14:18:44;;;;;;;5.68;4.90;;;;;;;;;;5078477;28;21154;-90
2021/06/04 14:21:29;;;;;;;6.38;5.25;;;;;;;;;;5074802;28;22257;-90
2021/06/04 14:23:59;;;;;;;8.38;5.25;;;;;;;;;;5086802;28;20466;-90
2021/06/04 14:26:29;;;;;;;5.35;4.85;;;;;;;;;;5079311;28;20435;-89
2021/06/04 14:29:01;;;;;;;5.13;4.72;;;;;;;;;;5076946;28;20416;-89
2021/06/04 14:31:29;;;;;;;6.03;4.70;;;;;;;;;;5075130;28;21036;-89
2021/06/04 14:33:56;;;;;;;5.22;4.72;;;;;;;;;;5081666;28;20819;-89
2021/06/04 14:36:27;;;;;;;6.80;5.00;;;;;;;;;;5080065;28;20397;-89
2021/06/04 14:38:54;;;;;;;6.43;4.70;;;;;;;;;;5080586;28;20419;-90
2021/06/04 14:41:24;;;;;;;5.40;4.90;;;;;;;;;;5077427;28;20435;-88
2021/06/04 14:43:53;;;;;;;5.57;4.97;;;;;;;;;;5077990;28;20412;-90
2021/06/04 14:46:23;;;;;;;6.23;4.60;;;;;;;;;;5078809;28;20432;-89
2021/06/04 14:48:49;;;;;;;6.57;5.13;;;;;;;;;;5080901;28;20826;-88
2021/06/04 14:51:16;;;;;;;5.30;4.80;;;;;;;;;;5081330;28;20491;-89
2021/06/04 14:53:44;;;;;;;6.20;4.77;;;;;;;;;;5085184;28;20523;-89